createdAt,value
2022-09-14T00:01:30.551Z,895.03
2022-09-14T00:04:00.003Z,891.03
2022-09-14T00:06:28.779Z,888.33
2022-09-14T00:09:00.781Z,887.47
2022-09-14T00:11:30.523Z,892.87
2022-09-14T00:13:59.467Z,898.60
2022-09-14T00:16:29.099Z,897.50
2022-09-14T00:18:59.134Z,894.13
2022-09-14T00:21:27.545Z,901.63
2022-09-14T00:23:55.746Z,892.63
2022-09-14T00:26:25.797Z,895.13
2022-09-14T00:28:55.420Z,895.20
2022-09-14T00:31:24.387Z,893.37
2022-09-14T00:33:59.507Z,896.13
2022-09-14T00:36:29.479Z,896.40
2022-09-14T00:38:58.127Z,896.27
2022-09-14T00:41:29.219Z,902.20
2022-09-14T00:43:59.936Z,897.97
2022-09-14T00:46:29.717Z,898.27
2022-09-14T00:49:01.692Z,906.90
2022-09-14T00:51:31.799Z,900.17
2022-09-14T00:54:00.000Z,900.90
2022-09-14T00:56:29.414Z,898.30
2022-09-14T00:59:00.000Z,895.70
2022-09-14T01:01:28.653Z,905.37
2022-09-14T01:04:01.462Z,905.60
2022-09-14T01:06:36.094Z,897.33
2022-09-14T01:09:16.679Z,898.03
2022-09-14T01:11:55.749Z,899.40
2022-09-14T01:14:29.154Z,897.83
2022-09-14T01:17:03.003Z,901.47
2022-09-14T01:19:38.861Z,897.57
2022-09-14T01:22:12.564Z,909.27
2022-09-14T01:24:47.791Z,902.93
2022-09-14T01:27:30.364Z,896.47
2022-09-14T01:30:06.417Z,900.23
2022-09-14T01:32:37.825Z,904.33
2022-09-14T01:35:13.071Z,903.33
2022-09-14T01:37:47.790Z,894.27
2022-09-14T01:40:19.494Z,896.83
2022-09-14T01:42:52.081Z,900.77
2022-09-14T01:45:22.311Z,897.03
2022-09-14T01:47:54.543Z,900.20
2022-09-14T01:50:26.176Z,896.10
2022-09-14T01:52:57.399Z,901.90
2022-09-14T01:55:28.752Z,904.17
2022-09-14T01:58:02.264Z,901.43
2022-09-14T02:00:31.374Z,901.73
2022-09-14T02:03:02.694Z,898.60
2022-09-14T02:05:35.468Z,906.53
2022-09-14T02:08:03.811Z,899.17
2022-09-14T02:10:32.288Z,900.93
2022-09-14T02:13:01.793Z,910.27
2022-09-14T02:15:29.839Z,902.23
2022-09-14T02:17:57.990Z,900.70
2022-09-14T02:20:31.573Z,902.83
2022-09-14T02:22:59.565Z,905.33
2022-09-14T02:25:28.387Z,896.90
2022-09-14T02:27:56.509Z,905.43
2022-09-14T02:30:26.317Z,903.77
2022-09-14T02:33:01.702Z,906.40
2022-09-14T02:35:33.119Z,907.97
2022-09-14T02:38:05.826Z,908.77
2022-09-14T02:40:37.323Z,904.50
2022-09-14T02:43:14.335Z,910.17
2022-09-14T02:45:48.862Z,910.23
2022-09-14T02:48:24.288Z,906.47
2022-09-14T02:50:54.660Z,904.80
2022-09-14T02:53:27.708Z,908.03
2022-09-14T02:56:00.187Z,910.27
2022-09-14T02:58:36.295Z,910.40
2022-09-14T03:01:07.284Z,908.33
2022-09-14T03:03:35.951Z,912.07
2022-09-14T03:06:04.736Z,909.00
2022-09-14T03:08:32.929Z,904.53
2022-09-14T03:11:01.201Z,908.30
2022-09-14T03:13:29.233Z,900.23
2022-09-14T03:15:57.283Z,910.77
2022-09-14T03:18:26.761Z,910.37
2022-09-14T03:20:54.833Z,909.80
2022-09-14T03:23:22.995Z,914.27
2022-09-14T03:25:50.992Z,917.33
2022-09-14T03:28:18.952Z,906.60
2022-09-14T03:30:47.469Z,908.37
2022-09-14T03:33:15.864Z,907.90
2022-09-14T03:35:45.317Z,909.00
2022-09-14T03:38:13.281Z,909.57
2022-09-14T03:40:41.336Z,910.97
2022-09-14T03:43:12.292Z,907.63
2022-09-14T03:45:40.246Z,911.37
2022-09-14T03:48:08.444Z,913.93
2022-09-14T03:50:36.434Z,907.03
2022-09-14T03:53:05.812Z,910.83
2022-09-14T03:55:33.771Z,913.30
2022-09-14T03:58:01.764Z,914.97
2022-09-14T04:00:29.728Z,919.43
2022-09-14T04:02:57.902Z,916.30
2022-09-14T04:05:26.158Z,914.43
2022-09-14T04:07:54.125Z,915.33
2022-09-14T04:10:23.573Z,917.93
2022-09-14T04:12:51.662Z,920.33
2022-09-14T04:15:19.846Z,917.43
2022-09-14T04:17:48.597Z,923.23
2022-09-14T04:20:18.279Z,923.30
2022-09-14T04:22:46.660Z,925.00
2022-09-14T04:25:14.745Z,918.60
2022-09-14T04:27:46.094Z,921.97
2022-09-14T04:30:19.356Z,916.83
2022-09-14T04:32:47.418Z,922.33
2022-09-14T04:35:15.722Z,924.23
2022-09-14T04:37:43.681Z,915.43
2022-09-14T04:40:12.944Z,918.73
2022-09-14T04:42:41.284Z,923.77
2022-09-14T04:45:11.939Z,924.57
2022-09-14T04:47:39.962Z,924.70
2022-09-14T04:50:08.817Z,927.33
2022-09-14T04:52:36.905Z,929.77
2022-09-14T04:55:05.621Z,924.10
2022-09-14T04:57:33.751Z,924.27
2022-09-14T05:00:01.803Z,932.27
2022-09-14T05:02:32.244Z,930.80
2022-09-14T05:05:00.312Z,930.40
2022-09-14T05:07:28.641Z,925.57
2022-09-14T05:09:56.589Z,929.40
2022-09-14T05:12:24.711Z,926.97
2022-09-14T05:14:52.811Z,928.43
2022-09-14T05:17:20.740Z,928.47
2022-09-14T05:19:50.033Z,934.50
2022-09-14T05:22:18.047Z,936.37
2022-09-14T05:24:45.967Z,930.67
2022-09-14T05:27:13.951Z,928.07
2022-09-14T05:29:41.952Z,929.47
2022-09-14T05:32:10.104Z,929.97
2022-09-14T05:34:38.060Z,926.80
2022-09-14T05:37:07.344Z,928.20
2022-09-14T05:39:37.644Z,932.00
2022-09-14T05:42:05.862Z,925.73
2022-09-14T05:44:34.130Z,929.83
2022-09-14T05:47:02.028Z,930.90
2022-09-14T05:49:30.360Z,927.40
2022-09-14T05:51:58.303Z,936.13
2022-09-14T05:54:27.603Z,934.03
2022-09-14T05:56:55.558Z,936.60
2022-09-14T05:59:23.449Z,934.73
2022-09-14T06:01:51.412Z,933.40
2022-09-14T06:04:19.378Z,943.00
2022-09-14T06:07:01.650Z,934.30
2022-09-14T06:09:36.549Z,935.37
2022-09-14T06:12:04.699Z,934.53
2022-09-14T06:14:32.651Z,923.80
2022-09-14T06:17:00.734Z,928.73
2022-09-14T06:19:28.691Z,937.70
2022-09-14T06:21:56.592Z,941.67
2022-09-14T06:24:24.501Z,934.80
2022-09-14T06:26:53.774Z,936.83
2022-09-14T06:29:21.786Z,941.50
2022-09-14T06:31:49.736Z,938.67
2022-09-14T06:34:18.035Z,941.23
2022-09-14T06:36:45.950Z,939.37
2022-09-14T06:39:14.075Z,932.97
2022-09-14T06:41:42.064Z,936.03
2022-09-14T06:44:21.221Z,933.63
2022-09-14T06:46:49.165Z,937.73
2022-09-14T06:49:20.666Z,935.83
2022-09-14T06:51:48.827Z,939.33
2022-09-14T06:54:17.637Z,935.37
2022-09-14T06:56:46.891Z,948.70
2022-09-14T06:59:16.636Z,947.17
2022-09-14T07:01:46.399Z,940.80
2022-09-14T07:04:15.030Z,941.00
2022-09-14T07:06:44.561Z,941.30
2022-09-14T07:09:13.059Z,938.97
2022-09-14T07:11:42.039Z,938.00
2022-09-14T07:14:10.657Z,939.07
2022-09-14T07:16:39.853Z,946.20
2022-09-14T07:19:11.740Z,935.33
2022-09-14T07:21:40.090Z,938.33
2022-09-14T07:24:08.186Z,943.00
2022-09-14T07:26:40.531Z,937.27
2022-09-14T07:29:15.168Z,931.97
2022-09-14T07:31:44.605Z,935.77
2022-09-14T07:34:14.174Z,937.63
2022-09-14T07:36:43.077Z,933.17
2022-09-14T07:39:13.435Z,931.53
2022-09-14T07:41:41.486Z,937.97
2022-09-14T07:44:09.783Z,931.37
2022-09-14T07:46:40.054Z,930.77
2022-09-14T07:49:09.227Z,934.20
2022-09-14T07:51:39.253Z,931.50
2022-09-14T07:54:08.304Z,932.90
2022-09-14T07:56:36.392Z,940.60
2022-09-14T08:01:53.800Z,928.43
2022-09-14T08:04:21.914Z,923.13
2022-09-14T08:06:51.190Z,930.13
2022-09-14T08:09:19.063Z,925.37
2022-09-14T08:11:47.043Z,920.40
2022-09-14T08:14:15.536Z,922.97
2022-09-14T08:16:43.486Z,931.10
2022-09-14T08:19:15.418Z,922.17
2022-09-14T08:21:46.893Z,920.03
2022-09-14T08:24:18.612Z,925.67
2022-09-14T08:26:47.131Z,926.10
2022-09-14T08:29:15.480Z,920.13
2022-09-14T08:31:45.400Z,919.10
2022-09-14T08:34:14.852Z,924.93
2022-09-14T08:36:43.576Z,931.37
2022-09-14T08:39:13.125Z,913.43
2022-09-14T08:41:49.866Z,924.87
2022-09-14T08:44:21.148Z,925.83
2022-09-14T08:46:50.679Z,924.47
2022-09-14T08:49:21.805Z,930.00
2022-09-14T08:51:50.206Z,922.30
2022-09-14T08:54:18.205Z,917.90
2022-09-14T08:56:51.443Z,919.20
2022-09-14T08:59:30.971Z,917.97
2022-09-14T09:02:09.428Z,917.90
2022-09-14T09:04:45.527Z,910.47
2022-09-14T09:07:20.021Z,909.17
2022-09-14T09:09:49.752Z,907.83
2022-09-14T09:12:20.854Z,900.43
2022-09-14T09:14:52.278Z,902.90
2022-09-14T09:17:23.352Z,904.93
2022-09-14T09:19:58.953Z,905.00
2022-09-14T09:22:30.515Z,906.63
2022-09-14T09:25:00.790Z,908.97
2022-09-14T09:27:30.176Z,909.53
2022-09-14T09:29:58.097Z,903.57
2022-09-14T09:32:29.481Z,894.67
2022-09-14T09:35:23.747Z,889.03
2022-09-14T09:38:01.447Z,904.13
2022-09-14T09:40:35.301Z,900.23
2022-09-14T09:43:10.404Z,905.53
2022-09-14T09:45:49.058Z,900.27
2022-09-14T09:48:19.230Z,896.33
2022-09-14T09:51:03.273Z,897.93
2022-09-14T09:53:32.613Z,899.73
2022-09-14T09:56:00.682Z,898.47
2022-09-14T09:58:33.158Z,898.53
2022-09-14T10:01:02.470Z,912.23
2022-09-14T10:03:33.525Z,910.13
2022-09-14T10:06:07.258Z,913.70
2022-09-14T10:08:41.835Z,918.50
2022-09-14T10:11:31.864Z,919.00
2022-09-14T10:14:01.314Z,908.87
2022-09-14T10:16:35.962Z,912.70
2022-09-14T10:19:04.475Z,910.63
2022-09-14T10:21:32.438Z,919.07
2022-09-14T10:24:07.886Z,908.70
2022-09-14T10:26:37.436Z,915.03
2022-09-14T10:29:39.183Z,918.30
2022-09-14T10:32:19.251Z,916.43
2022-09-14T10:34:47.279Z,910.93
2022-09-14T10:37:27.873Z,908.27
2022-09-14T10:40:05.681Z,905.17
2022-09-14T10:42:40.863Z,897.73
2022-09-14T10:45:20.569Z,895.60
2022-09-14T10:48:13.462Z,901.67
2022-09-14T10:50:55.274Z,901.07
2022-09-14T10:53:37.271Z,896.43
2022-09-14T10:56:10.142Z,901.07
2022-09-14T10:58:51.078Z,897.40
2022-09-14T11:01:28.843Z,900.67
2022-09-14T11:04:12.711Z,902.07
2022-09-14T11:06:49.310Z,905.20
2022-09-14T11:09:23.117Z,904.73
2022-09-14T11:11:58.881Z,911.57
2022-09-14T11:14:44.437Z,918.10
2022-09-14T11:17:31.811Z,919.97
2022-09-14T11:20:05.582Z,920.03
2022-09-14T11:22:41.262Z,919.40
2022-09-14T11:25:13.400Z,920.47
2022-09-14T11:27:45.293Z,927.80
2022-09-14T11:30:19.582Z,921.20
2022-09-14T11:32:51.972Z,926.37
2022-09-14T11:35:22.721Z,927.93
2022-09-14T11:37:57.510Z,922.23
2022-09-14T11:40:30.375Z,921.60
2022-09-14T11:43:02.391Z,920.40
2022-09-14T11:45:33.442Z,918.63
2022-09-14T11:48:40.761Z,923.70
2022-09-14T11:51:03.512Z,928.37
2022-09-14T11:53:32.678Z,927.93
2022-09-14T11:56:00.826Z,925.87
2022-09-14T11:58:30.902Z,930.03
2022-09-14T12:01:21.977Z,926.27
2022-09-14T12:04:05.946Z,923.87
2022-09-14T12:06:55.190Z,917.77
2022-09-14T12:09:43.811Z,925.57
2022-09-14T12:12:41.031Z,914.57
2022-09-14T12:15:16.990Z,913.17
2022-09-14T12:17:45.607Z,905.33
2022-09-14T12:20:35.173Z,903.37
2022-09-14T12:23:14.091Z,888.17
2022-09-14T12:26:13.950Z,890.07
2022-09-14T12:28:48.267Z,900.17
2022-09-14T12:31:39.678Z,892.23
2022-09-14T12:34:25.965Z,888.03
2022-09-14T12:37:01.437Z,890.50
2022-09-14T12:39:30.519Z,892.70
2022-09-14T12:42:04.443Z,887.03
2022-09-14T12:44:35.245Z,894.40
2022-09-14T12:47:49.058Z,891.37
2022-09-14T12:50:18.687Z,896.97
2022-09-14T12:52:55.800Z,894.37
2022-09-14T12:55:46.145Z,897.70
2022-09-14T12:58:23.607Z,891.40
2022-09-14T13:00:58.895Z,893.13
2022-09-14T13:03:50.884Z,900.57
2022-09-14T13:06:19.656Z,902.20
2022-09-14T13:08:51.471Z,897.70
2022-09-14T13:11:22.357Z,902.37
2022-09-14T13:13:50.946Z,903.57
2022-09-14T13:16:35.536Z,907.23
2022-09-14T13:19:10.153Z,905.10
2022-09-14T13:21:47.127Z,912.17
2022-09-14T13:24:29.150Z,910.70
2022-09-14T13:26:59.269Z,912.73
2022-09-14T13:29:28.118Z,912.73
2022-09-14T13:32:02.435Z,910.77
2022-09-14T13:34:33.994Z,915.23
2022-09-14T13:37:02.415Z,910.17
2022-09-14T13:39:34.802Z,917.70
2022-09-14T13:42:03.437Z,915.80
2022-09-14T13:44:32.876Z,914.60
2022-09-14T13:47:03.988Z,916.40
2022-09-14T13:49:32.163Z,920.60
2022-09-14T13:52:18.795Z,914.73
2022-09-14T13:54:48.330Z,916.97
2022-09-14T13:57:17.930Z,919.67
2022-09-14T14:00:20.026Z,920.43
2022-09-14T14:02:49.891Z,923.00
2022-09-14T14:05:23.227Z,920.37
2022-09-14T14:07:51.958Z,916.37
2022-09-14T14:10:27.585Z,923.93
2022-09-14T14:12:55.628Z,922.83
2022-09-14T14:15:39.839Z,924.30
2022-09-14T14:18:32.300Z,922.57
2022-09-14T14:21:28.727Z,926.03
2022-09-14T14:24:17.783Z,920.80
2022-09-14T14:26:51.571Z,914.53
2022-09-14T14:29:19.702Z,918.73
2022-09-14T14:31:47.708Z,930.07
2022-09-14T14:34:21.654Z,923.10
2022-09-14T14:36:50.398Z,919.83
2022-09-14T14:39:19.879Z,915.40
2022-09-14T14:41:50.463Z,925.87
2022-09-14T14:44:20.697Z,918.93
2022-09-14T14:46:53.179Z,919.43
2022-09-14T14:49:21.920Z,921.63
2022-09-14T14:51:49.907Z,924.60
2022-09-14T14:54:18.811Z,927.37
2022-09-14T14:56:47.891Z,928.43
2022-09-14T14:59:31.079Z,931.43
2022-09-14T15:01:59.639Z,926.70
2022-09-14T15:04:29.476Z,925.40
2022-09-14T15:06:57.538Z,925.00
2022-09-14T15:09:27.514Z,928.33
2022-09-14T15:11:56.340Z,928.60
2022-09-14T15:14:27.772Z,930.30
2022-09-14T15:17:00.284Z,933.87
2022-09-14T15:19:29.249Z,926.13
2022-09-14T15:22:01.145Z,923.10
2022-09-14T15:24:30.517Z,923.33
2022-09-14T15:26:58.759Z,927.50
2022-09-14T15:29:26.879Z,925.17
2022-09-14T15:31:55.092Z,928.57
2022-09-14T15:34:24.841Z,921.20
2022-09-14T15:36:54.315Z,918.93
2022-09-14T15:39:24.024Z,920.60
2022-09-14T15:41:52.618Z,920.40
2022-09-14T15:44:21.323Z,920.07
2022-09-14T15:46:49.819Z,918.17
2022-09-14T15:49:19.871Z,926.87
2022-09-14T15:51:51.123Z,923.40
2022-09-14T15:54:19.639Z,921.50
2022-09-14T15:56:50.489Z,916.13
2022-09-14T15:59:19.042Z,911.70
2022-09-14T16:01:47.324Z,921.60
2022-09-14T16:04:16.056Z,917.60
2022-09-14T16:06:44.280Z,923.30
2022-09-14T16:09:14.924Z,919.97
2022-09-14T16:11:43.268Z,915.83
2022-09-14T16:14:12.786Z,922.87
2022-09-14T16:16:41.567Z,921.67
2022-09-14T16:19:12.570Z,922.47
2022-09-14T16:21:41.805Z,922.07
2022-09-14T16:24:14.893Z,914.27
2022-09-14T16:26:43.633Z,917.67
2022-09-14T16:29:13.223Z,916.70
2022-09-14T16:31:43.346Z,922.60
2022-09-14T16:34:15.514Z,921.20
2022-09-14T16:36:43.853Z,920.17
2022-09-14T16:39:42.383Z,920.57
2022-09-14T16:42:12.252Z,911.27
2022-09-14T16:44:40.334Z,917.43
2022-09-14T16:47:08.541Z,911.70
2022-09-14T16:49:39.257Z,918.97
2022-09-14T16:52:07.716Z,916.27
2022-09-14T16:54:39.540Z,920.00
2022-09-14T16:57:07.547Z,916.07
2022-09-14T16:59:36.069Z,913.00
2022-09-14T17:02:04.182Z,915.70
2022-09-14T17:04:32.462Z,913.70
2022-09-14T17:07:00.466Z,914.93
2022-09-14T17:13:58.525Z,898.73
2022-09-14T17:16:28.036Z,916.50
2022-09-14T17:19:35.194Z,911.67
2022-09-14T17:27:52.603Z,907.53
2022-09-14T17:30:25.442Z,910.90
2022-09-14T17:32:53.504Z,915.60
2022-09-14T17:35:21.481Z,918.00
2022-09-14T17:37:49.748Z,920.43
2022-09-14T17:40:17.845Z,917.33
2022-09-14T17:42:46.014Z,918.90
2022-09-14T17:45:14.562Z,915.57
2022-09-14T17:47:44.045Z,913.07
2022-09-14T17:50:12.500Z,922.10
2022-09-14T17:52:40.624Z,921.73
2022-09-14T17:55:47.182Z,913.57
2022-09-14T17:58:35.352Z,907.33
2022-09-14T18:01:08.659Z,916.03
2022-09-14T18:03:39.095Z,910.90
2022-09-14T18:06:08.688Z,912.03
2022-09-14T18:08:37.022Z,908.20
2022-09-14T18:11:06.569Z,915.43
2022-09-14T18:13:34.736Z,909.37
2022-09-14T18:16:03.155Z,909.97
2022-09-14T18:18:31.573Z,916.73
2022-09-14T18:21:01.761Z,909.10
2022-09-14T18:23:30.181Z,910.20
2022-09-14T18:25:58.622Z,915.73
2022-09-14T18:28:26.897Z,908.47
2022-09-14T18:31:01.170Z,911.00
2022-09-14T18:33:29.583Z,911.57
2022-09-14T18:35:58.102Z,913.23
2022-09-14T18:38:28.910Z,912.93
2022-09-14T18:40:57.130Z,914.80
2022-09-14T18:43:25.658Z,916.37
2022-09-14T18:45:54.099Z,918.63
2022-09-14T18:48:22.233Z,910.97
2022-09-14T18:50:50.497Z,911.27
2022-09-14T18:53:20.633Z,917.63
2022-09-14T18:55:50.138Z,906.73
2022-09-14T18:58:18.340Z,909.23
2022-09-14T19:00:46.593Z,915.70
2022-09-14T19:03:14.810Z,906.23
2022-09-14T19:05:43.384Z,914.83
2022-09-14T19:08:13.576Z,913.90
2022-09-14T19:10:44.349Z,914.67
2022-09-14T19:13:13.905Z,911.00
2022-09-14T19:15:42.969Z,911.40
2022-09-14T19:18:11.290Z,913.67
2022-09-14T19:21:04.734Z,911.30
2022-09-14T19:23:29.148Z,911.33
2022-09-14T19:25:58.294Z,914.37
2022-09-14T19:28:28.213Z,917.30
2022-09-14T19:30:56.334Z,914.30
2022-09-14T19:33:24.719Z,911.77
2022-09-14T19:35:52.810Z,907.90
2022-09-14T19:38:21.113Z,911.80
2022-09-14T19:40:53.421Z,907.00
2022-09-14T19:43:21.629Z,901.83
2022-09-14T19:45:51.159Z,908.67
2022-09-14T19:48:19.378Z,905.47
2022-09-14T19:50:47.611Z,906.07
2022-09-14T19:53:15.899Z,909.60
2022-09-14T19:55:44.310Z,907.23
2022-09-14T19:58:12.814Z,911.87
2022-09-14T20:00:42.346Z,914.57
2022-09-14T20:03:14.783Z,912.57
2022-09-14T20:05:45.696Z,906.00
2022-09-14T20:08:13.979Z,906.17
2022-09-14T20:10:42.099Z,908.37
2022-09-14T20:13:10.245Z,911.07
2022-09-14T20:15:38.900Z,912.13
2022-09-14T20:18:07.750Z,902.83
2022-09-14T20:20:38.712Z,905.20
2022-09-14T20:23:06.786Z,909.37
2022-09-14T20:25:47.087Z,904.93
2022-09-14T20:28:15.581Z,902.80
2022-09-14T20:30:43.792Z,898.93
2022-09-14T20:33:12.370Z,902.83
2022-09-14T20:35:41.951Z,898.10
2022-09-14T20:38:10.258Z,890.00
2022-09-14T20:40:38.488Z,897.33
2022-09-14T20:43:07.069Z,896.50
2022-09-14T20:45:36.716Z,893.77
2022-09-14T20:48:05.205Z,896.20
2022-09-14T20:50:33.702Z,897.17
2022-09-14T20:53:04.030Z,890.67
2022-09-14T20:55:33.230Z,893.17
2022-09-14T20:58:01.537Z,899.10
2022-09-14T21:00:41.431Z,894.50
2022-09-14T21:03:15.994Z,894.47
2022-09-14T21:05:45.389Z,893.23
2022-09-14T21:08:15.659Z,894.70
2022-09-14T21:11:06.283Z,898.50
2022-09-14T21:13:35.555Z,904.20
2022-09-14T21:16:10.334Z,902.70
2022-09-14T21:18:39.044Z,898.80
2022-09-14T21:21:09.650Z,901.23
2022-09-14T21:23:40.094Z,894.43
2022-09-14T21:26:09.733Z,892.50
2022-09-14T21:28:39.602Z,896.50
2022-09-14T21:31:09.578Z,890.37
2022-09-14T21:33:39.584Z,896.47
2022-09-14T21:36:10.794Z,892.17
2022-09-14T21:38:40.713Z,898.83
2022-09-14T21:41:11.839Z,893.00
2022-09-14T21:43:41.759Z,887.93
2022-09-14T21:46:38.613Z,892.33
2022-09-14T21:49:08.642Z,892.67
2022-09-14T21:51:40.034Z,896.30
2022-09-14T21:54:12.431Z,892.10
2022-09-14T21:56:42.862Z,896.03
2022-09-14T21:59:37.235Z,894.23
2022-09-14T22:03:03.407Z,891.20
2022-09-14T22:05:31.719Z,889.53
2022-09-14T22:07:59.970Z,884.30
2022-09-14T22:10:29.733Z,889.67
2022-09-14T22:12:58.022Z,884.57
2022-09-14T22:15:31.851Z,887.27
2022-09-14T22:18:02.242Z,891.20
2022-09-14T22:20:30.929Z,897.60
2022-09-14T22:22:58.938Z,893.10
2022-09-14T22:25:29.035Z,888.17
2022-09-14T22:27:58.540Z,885.33
2022-09-14T22:30:26.886Z,882.17
2022-09-14T22:32:55.250Z,886.93
2022-09-14T22:35:23.395Z,887.07
2022-09-14T22:37:51.641Z,887.77
2022-09-14T22:40:22.361Z,891.03
2022-09-14T22:42:50.388Z,891.40
2022-09-14T22:45:20.254Z,890.20
2022-09-14T22:47:48.597Z,889.13
2022-09-14T22:50:17.076Z,889.83
2022-09-14T22:52:45.545Z,896.53
2022-09-14T22:55:14.186Z,887.63
2022-09-14T22:57:42.518Z,891.80
2022-09-14T23:00:12.210Z,885.63
2022-09-14T23:02:42.309Z,887.97
2022-09-14T23:05:11.482Z,888.57
2022-09-14T23:07:39.584Z,885.07
2022-09-14T23:10:08.362Z,893.30
2022-09-14T23:12:36.426Z,890.83
2022-09-14T23:15:04.933Z,886.97
2022-09-14T23:17:33.033Z,882.70
2022-09-14T23:20:03.328Z,886.00
2022-09-14T23:22:32.560Z,890.80
2022-09-14T23:25:00.740Z,881.30
2022-09-14T23:27:29.122Z,880.60
2022-09-14T23:29:57.309Z,883.53
2022-09-14T23:32:25.483Z,880.23
2022-09-14T23:34:53.646Z,885.17
2022-09-14T23:37:23.138Z,884.40
2022-09-14T23:39:51.185Z,886.07
2022-09-14T23:42:19.367Z,880.83
2022-09-14T23:44:47.497Z,872.53
2022-09-14T23:47:15.526Z,889.27
2022-09-14T23:49:43.520Z,884.90
2022-09-14T23:52:11.827Z,876.33
2022-09-14T23:54:42.765Z,878.63
2022-09-14T23:57:10.945Z,886.17
2022-09-14T23:59:39.018Z,879.47
